AirNav   Everest Fuels
 
 1551 users online  

2WN3 Curns Airport
New London, Wisconsin, USA

GOING TO NEW LONDON?


FAA INFORMATION EFFECTIVE 20 MAY 2021

Location

FAA Identifier: 2WN3
Lat/Long: 44-21-28.3440N 088-45-40.9800W
44-21.472400N 088-45.683000W
44.3578733,-88.7613833
(estimated)
Elevation: 790 ft. / 241 m (estimated)
Variation: 02W ()
From city: 1 mile N of NEW LONDON, WI
Time zone: UTC -5 (UTC -6 during Standard Time)
Zip code: 54961

Airport Operations

Airport use: Private use. Permission required prior to landing
Activation date: 06/2001
Control tower: no
ARTCC: MINNEAPOLIS CENTER
FSS: GREEN BAY FLIGHT SERVICE STATION
Attendance: UNATNDD
Wind indicator: yes
Segmented circle: no

Airport Communications

WX AWOS-3 at PCZ (11 nm W): 118.625 (920-867-2407)
WX AWOS-3 at ATW (12 nm SE): PHONE 920-832-2597
WX AWOS-3 at CLI (15 nm N): 120.675 (715-823-7691)

Nearby radio navigation aids

VOR radial/distance  VOR name  Freq  Var
OSHr336/23.8OSHKOSH VORTAC116.7502E
GRBr243/27.0GREEN BAY VORTAC115.5001E

Airport Services

Runway Information

Runway 9/27

Dimensions: 2500 x 60 ft. / 762 x 18 m
Surface: turf
Operational restrictions: CONFIRM RY CONDITIONS WITH ARPT MANAGER 920-982-2168.
RUNWAY 9  RUNWAY 27
Traffic pattern: leftleft
Displaced threshold: no660 ft.
DSPLCD THLD MKD WITH HALF BARRELS.
Obstructions: none32 ft. pline, marked and lighted, 40 ft. from runway

Runway 18/36

Dimensions: 1001 x 60 ft. / 305 x 18 m
Surface: turf
Operational restrictions: NOT PLOWED WINTER DEC-MAR
RUNWAY 18  RUNWAY 36
Traffic pattern: leftleft

Airport Ownership and Management from official FAA records

Ownership: Privately-owned
Owner: JIM CURNS
E 9255 LYONS RD
NEW LONDON, WI 54961
Phone 920-982-6882
Manager: JIM CURNS
E 9255 LYONS RD
NEW LONDON, WI 54961
Phone 920-982-2168

Airport Operational Statistics

Aircraft based on the field: 2
Single engine airplanes: 1
Ultralights: 1
    

Additional Remarks

DEER, TURKEY AND OTHER WILDLIFE INVOF OF RY.
CENTER PIVOT IRRIGATION MAY BLOCK RY FROM USE AT TIMES.
TREES 40-50FT HIGH 300 FT WEST OF RY 09.
FOR CD CTC MINNEAPOLIS ARTCC AT 651-463-5588.

Instrument Procedures

There are no published instrument procedures at 2WN3.

Some nearby airports with instrument procedures:

KPCZ - Waupaca Municipal Airport (11 nm W)
KATW - Appleton International Airport (12 nm SE)
KCLI - Clintonville Municipal Airport (15 nm N)
KOSH - Wittman Regional Airport (24 nm S)
KEZS - Shawano Municipal Airport (27 nm N)
 
Loc | Ops | Rwys | IFR | FBO | Links
Com | Nav | Svcs | Stats | Notes
Area around 2WN3 (Curns Airport)
 
Road maps at: MapQuest Bing Google
 
Aerial photo
No photo
 
Sectional chart

 
Airport distance calculator
Flying to Curns Airport? Find the distance to fly.

From to 2WN3

Sunrise and sunset
Times for 14-Jun-2021
 Local
(UTC-5)
 Zulu
(UTC)
Morning civil twilight04:3509:35
Sunrise05:1110:11
Sunset20:3901:39
Evening civil twilight21:1602:16

Current date and time
Zulu (UTC)  14-Jun-2021 19:10:25
Local (UTC-5)  14-Jun-2021 14:10:25
 
METAR
KPCZ 
11nm W 
141855Z AUTO 04010G15KT 10SM BKN100 25/08 A3000 RMK AO2 T02530080
KATW 
12nm SE 
141845Z 03011G18KT 10SM BKN070 23/08 A2998
KCLI 
15nm N 
141855Z AUTO 34006KT 310V010 10SM SCT110 25/08 A2999 RMK AO2 T02510075
TAF
KATW 
12nm SE 
141722Z 1418/1518 33012G19KT P6SM SCT200 FM141900 35010G18KT P6SM VCSH SCT050 BKN070 TEMPO 1419/1423 4SM -TSRA SCT025CB BKN050 FM150000 01006KT P6SM SCT080 FM150300 01005KT P6SM SKC FM151400 03008G16KT P6SM SCT040
NOTAMs
Click for the latest NOTAMs
NOTAMs are issued by the DoD/FAA and will open in a separate window not controlled by AirNav.

 

 
 

Would you like to see your business listed on this page?

 If your business provides an interesting product or service to pilots, flight crews, aircraft, or users of the Curns Airport, you should consider listing it here.  To start the listing process, click on the button below
 
Add a business
 

Other Pages about Curns Airport

Update a link
 
Copyright © AirNav, LLC. All rights reserved. Privacy Policy  Contact